Time;durP1;ratioP1;P1;durP2;ratioP2;P2;SDS_P1;SDS_P2;PMS_P1;PMS_P2;Temp;Humidity;BMP_temperature;BMP_pressure;BME280_temperature;BME280_humidity;BME280_pressure;Samples;Min_cycle;Max_cycle;Signal;HPM_P1;HPM_P2
2022/01/08 00:01:41;;;;;;;3.45;1.45;;;1.40;99.90;;;;;;5029771;28;20030;-73
2022/01/08 00:04:07;;;;;;;2.75;1.33;;;1.40;99.90;;;;;;5035506;28;20167;-73
2022/01/08 00:06:32;;;;;;;3.25;1.42;;;1.40;99.90;;;;;;5034519;28;20037;-74
2022/01/08 00:08:58;;;;;;;1.73;1.13;;;1.30;99.90;;;;;;5033901;28;20104;-74
2022/01/08 00:11:27;;;;;;;2.78;1.50;;;1.40;99.90;;;;;;5047092;28;20095;-74
2022/01/08 00:13:54;;;;;;;3.55;1.88;;;1.50;99.90;;;;;;5036634;28;20782;-74
2022/01/08 00:16:20;;;;;;;2.70;1.38;;;1.40;99.90;;;;;;5015353;28;20030;-74
2022/01/08 00:18:46;;;;;;;2.65;1.20;;;1.40;99.90;;;;;;5036998;28;20024;-74
2022/01/08 00:21:11;;;;;;;3.30;1.50;;;1.40;99.90;;;;;;5026929;28;20026;-74
2022/01/08 00:23:37;;;;;;;2.42;1.33;;;1.50;99.90;;;;;;5030395;28;20025;-74
2022/01/08 00:26:04;;;;;;;2.13;1.20;;;1.60;99.90;;;;;;5015194;28;20437;-74
2022/01/08 00:28:30;;;;;;;3.28;1.45;;;1.60;99.90;;;;;;5014015;28;20118;-74
2022/01/08 00:30:56;;;;;;;5.88;1.50;;;1.60;99.90;;;;;;5035695;28;20025;-74
2022/01/08 00:33:21;;;;;;;4.38;1.58;;;1.70;99.90;;;;;;5036126;28;20544;-74
2022/01/08 00:35:50;;;;;;;5.43;2.50;;;1.70;99.90;;;;;;5012925;28;20038;-74
2022/01/08 00:38:16;;;;;;;7.05;2.10;;;1.80;99.90;;;;;;5032481;28;20041;-74
2022/01/08 00:40:42;;;;;;;5.60;2.30;;;1.80;99.90;;;;;;5027766;28;20478;-74
2022/01/08 00:43:08;;;;;;;4.28;1.65;;;1.80;99.90;;;;;;5031616;28;20378;-74
2022/01/08 00:45:33;;;;;;;2.35;0.90;;;1.80;99.90;;;;;;5015985;28;20044;-74
2022/01/08 00:47:59;;;;;;;3.10;1.13;;;1.90;99.90;;;;;;5027998;28;20390;-74
2022/01/08 00:50:28;;;;;;;4.38;1.10;;;1.90;99.90;;;;;;5031179;28;20030;-74
2022/01/08 00:52:54;;;;;;;2.65;1.20;;;2.00;99.90;;;;;;5028688;28;20112;-74
2022/01/08 00:55:20;;;;;;;3.40;1.48;;;2.00;99.90;;;;;;5012816;28;20108;-72
2022/01/08 00:57:45;;;;;;;2.33;0.82;;;2.10;99.90;;;;;;5032377;28;20037;-71
2022/01/08 01:00:13;;;;;;;4.82;1.23;;;2.10;99.90;;;;;;5033094;28;20018;-72
2022/01/08 01:02:40;;;;;;;2.75;1.38;;;2.20;99.90;;;;;;5029436;28;20466;-72
2022/01/08 01:05:07;;;;;;;2.50;1.17;;;2.20;99.90;;;;;;5029959;28;20048;-71
2022/01/08 01:07:34;;;;;;;2.83;1.20;;;2.30;99.90;;;;;;5033857;28;20030;-72
2022/01/08 01:09:59;;;;;;;2.75;1.10;;;2.30;99.90;;;;;;5025409;28;20474;-72
2022/01/08 01:12:25;;;;;;;3.83;1.40;;;2.30;99.90;;;;;;5027489;28;20026;-72
2022/01/08 01:14:54;;;;;;;3.20;1.30;;;2.30;99.90;;;;;;5033560;28;20024;-71
2022/01/08 01:17:19;;;;;;;3.47;1.65;;;2.40;99.90;;;;;;5032366;28;20390;-72
2022/01/08 01:19:47;;;;;;;4.18;1.70;;;2.40;99.90;;;;;;5038544;28;20021;-72
2022/01/08 01:22:16;;;;;;;2.33;1.15;;;2.40;99.90;;;;;;5012471;28;20064;-72
2022/01/08 01:24:47;;;;;;;3.75;1.85;;;2.40;99.90;;;;;;5014717;28;20163;-72
2022/01/08 01:48:16;;;;;;;4.35;2.03;;;2.50;99.90;;;;;;5028723;28;20109;-72
2022/01/08 01:50:42;;;;;;;4.18;1.75;;;2.50;99.90;;;;;;5010143;28;20401;-73
2022/01/08 01:53:07;;;;;;;4.40;2.10;;;2.60;99.90;;;;;;5025706;28;20120;-73
2022/01/08 01:55:34;;;;;;;3.47;2.15;;;2.50;99.90;;;;;;5029271;28;20087;-72
2022/01/08 01:58:00;;;;;;;4.00;1.85;;;2.50;99.90;;;;;;5025945;28;20021;-72
2022/01/08 02:00:26;;;;;;;6.10;2.53;;;2.50;99.90;;;;;;5026357;28;20537;-72
2022/01/08 02:02:52;;;;;;;5.38;2.17;;;2.50;99.90;;;;;;5033447;28;20033;-72
2022/01/08 02:05:17;;;;;;;3.10;1.55;;;2.40;99.90;;;;;;5011154;28;20026;-72
2022/01/08 02:07:43;;;;;;;3.03;1.88;;;2.40;99.90;;;;;;5024995;28;20477;-72
2022/01/08 02:10:09;;;;;;;2.67;1.90;;;2.40;99.90;;;;;;5010225;28;20033;-72
2022/01/08 02:12:35;;;;;;;4.07;2.58;;;2.40;99.90;;;;;;5015806;28;20106;-71
2022/01/08 02:15:01;;;;;;;5.57;2.20;;;2.40;99.90;;;;;;5015016;28;20242;-71
2022/01/08 02:17:30;;;;;;;3.80;2.35;;;2.40;99.90;;;;;;5011675;28;20044;-70
2022/01/08 02:19:56;;;;;;;4.15;2.20;;;2.40;99.90;;;;;;5025722;28;20499;-70
2022/01/08 02:22:22;;;;;;;5.93;2.20;;;2.40;99.90;;;;;;5023592;28;20107;-72
2022/01/08 02:24:48;;;;;;;3.50;1.90;;;2.40;99.90;;;;;;5025353;28;20478;-71
2022/01/08 02:27:15;;;;;;;3.63;2.25;;;2.40;99.90;;;;;;5022824;28;20025;-71
2022/01/08 02:29:42;;;;;;;4.32;2.78;;;2.40;99.90;;;;;;5012875;28;20143;-72
2022/01/08 02:32:18;;;;;;;4.78;1.88;;;2.40;99.90;;;;;;5028111;28;20083;-71
2022/01/08 02:34:45;;;;;;;4.90;2.22;;;2.50;99.90;;;;;;5027323;28;20021;-70
2022/01/08 02:37:12;;;;;;;5.13;2.40;;;2.50;99.90;;;;;;5030255;28;20022;-70
2022/01/08 02:39:43;;;;;;;4.53;2.17;;;2.50;99.90;;;;;;5030691;28;20029;-71
2022/01/08 02:42:16;;;;;;;3.25;1.75;;;2.50;99.90;;;;;;5009051;28;20033;-71
2022/01/08 02:44:43;;;;;;;2.65;1.60;;;2.50;99.90;;;;;;5028153;28;20060;-71
2022/01/08 02:47:09;;;;;;;2.88;1.67;;;2.50;99.90;;;;;;5030194;28;20029;-70
2022/01/08 02:49:38;;;;;;;3.50;1.45;;;2.50;99.90;;;;;;5013583;28;20111;-71
2022/01/08 02:52:04;;;;;;;3.65;1.83;;;2.60;99.90;;;;;;5030586;28;20032;-70
2022/01/08 02:54:30;;;;;;;4.03;1.20;;;2.60;99.90;;;;;;5024888;28;20029;-71
2022/01/08 02:56:56;;;;;;;4.60;2.17;;;2.70;99.90;;;;;;5027064;28;20025;-70
2022/01/08 02:59:22;;;;;;;4.72;1.45;;;2.70;99.90;;;;;;5019548;28;20111;-71
2022/01/08 03:01:47;;;;;;;3.58;1.35;;;2.80;99.90;;;;;;5031940;28;20495;-71
2022/01/08 03:04:13;;;;;;;3.22;1.05;;;2.80;99.90;;;;;;5005129;28;20029;-71
2022/01/08 03:06:40;;;;;;;6.22;2.05;;;2.80;99.90;;;;;;5024783;28;20030;-71
2022/01/08 03:09:06;;;;;;;2.67;1.60;;;2.70;99.90;;;;;;5023285;28;20437;-71
2022/01/08 03:11:32;;;;;;;4.57;1.55;;;2.70;99.90;;;;;;5011427;28;20026;-72
2022/01/08 03:13:58;;;;;;;3.88;1.08;;;2.80;99.90;;;;;;5007761;28;20088;-70
2022/01/08 03:16:24;;;;;;;2.30;1.30;;;2.70;99.90;;;;;;5029512;28;20029;-70
2022/01/08 03:18:50;;;;;;;2.88;0.90;;;2.80;99.90;;;;;;5030892;28;20024;-71
2022/01/08 03:21:19;;;;;;;1.85;1.20;;;2.90;99.90;;;;;;5015917;28;20075;-71
2022/01/08 03:23:59;;;;;;;3.55;1.05;;;2.90;99.90;;;;;;5028354;28;20363;-70
2022/01/08 03:26:28;;;;;;;1.83;1.13;;;2.90;99.90;;;;;;5026243;28;20034;-71
2022/01/08 03:28:55;;;;;;;2.03;1.05;;;3.00;99.90;;;;;;5036670;28;20040;-71
2022/01/08 03:31:22;;;;;;;1.13;0.75;;;3.00;99.90;;;;;;5035050;28;20025;-71
2022/01/08 03:33:49;;;;;;;2.90;0.60;;;3.00;99.90;;;;;;5046221;28;20061;-71
2022/01/08 03:36:16;;;;;;;1.58;0.60;;;3.10;99.90;;;;;;5029281;28;20021;-71
2022/01/08 03:38:42;;;;;;;2.97;0.52;;;3.10;99.90;;;;;;5036421;28;20649;-71
2022/01/08 03:41:08;;;;;;;1.33;0.68;;;3.20;99.90;;;;;;5020552;28;20485;-71
2022/01/08 03:43:34;;;;;;;0.82;0.50;;;3.30;99.90;;;;;;5032212;28;20129;-71
2022/01/08 03:46:02;;;;;;;0.50;0.30;;;3.30;99.90;;;;;;5029741;28;20155;-72
2022/01/08 03:49:10;;;;;;;0.50;0.40;;;3.40;99.90;;;;;;5033630;28;20026;-71
2022/01/08 03:51:33;;;;;;;1.42;0.47;;;3.50;99.90;;;;;;5038854;28;20037;-72
2022/01/08 03:53:59;;;;;;;0.80;0.30;;;3.50;99.90;;;;;;5029535;28;20056;-72
2022/01/08 03:56:25;;;;;;;2.25;0.57;;;3.50;99.90;;;;;;5029021;28;20497;-72
2022/01/08 03:58:51;;;;;;;0.60;0.25;;;3.50;99.90;;;;;;5029707;28;20120;-72
2022/01/08 04:01:17;;;;;;;0.52;0.30;;;3.60;99.90;;;;;;5035364;28;20025;-71
2022/01/08 04:03:42;;;;;;;0.22;0.13;;;3.60;99.90;;;;;;5032167;28;20025;-72
2022/01/08 04:06:08;;;;;;;1.15;0.50;;;3.60;99.90;;;;;;5015131;28;20378;-72
2022/01/08 04:08:34;;;;;;;0.50;0.22;;;3.70;99.90;;;;;;5013443;28;20030;-73
2022/01/08 04:11:01;;;;;;;0.40;0.30;;;3.70;99.90;;;;;;5038223;28;20025;-72
2022/01/08 04:13:30;;;;;;;0.80;0.30;;;3.70;99.90;;;;;;5028403;28;20026;-72
2022/01/08 04:16:02;;;;;;;0.55;0.20;;;3.70;99.90;;;;;;5016488;28;20026;-73
2022/01/08 04:18:27;;;;;;;0.38;0.20;;;3.70;99.90;;;;;;5030091;28;20021;-73
2022/01/08 04:23:21;;;;;;;0.20;0.10;;;3.70;99.90;;;;;;5030312;28;20025;-72
2022/01/08 04:25:48;;;;;;;1.60;0.20;;;3.60;99.90;;;;;;5036825;28;20025;-72
2022/01/08 04:28:15;;;;;;;0.93;0.30;;;3.70;99.90;;;;;;5035383;28;20120;-72
2022/01/08 04:30:40;;;;;;;0.65;0.40;;;3.70;99.90;;;;;;5033842;28;20090;-72
2022/01/08 04:33:06;;;;;;;0.30;0.10;;;3.80;99.90;;;;;;5032556;28;20044;-72
2022/01/08 04:35:32;;;;;;;1.60;0.20;;;3.80;99.90;;;;;;5021726;28;20510;-71
2022/01/08 04:37:57;;;;;;;0.40;0.20;;;3.80;99.90;;;;;;5023739;28;20668;-71
2022/01/08 04:40:23;;;;;;;0.77;0.20;;;3.80;99.90;;;;;;5032205;28;20029;-71
2022/01/08 04:42:49;;;;;;;0.75;0.20;;;3.80;99.90;;;;;;5037870;28;20029;-72
2022/01/08 04:45:15;;;;;;;0.88;0.20;;;3.80;99.90;;;;;;5028333;28;20034;-72
2022/01/08 04:47:41;;;;;;;0.30;0.10;;;3.90;99.90;;;;;;5037777;28;20024;-71
2022/01/08 04:50:07;;;;;;;0.75;0.38;;;3.90;99.90;;;;;;5031794;28;20035;-70
2022/01/08 04:52:34;;;;;;;0.20;0.10;;;3.90;99.90;;;;;;5044620;28;20052;-70
2022/01/08 04:54:59;;;;;;;1.13;0.30;;;3.80;99.90;;;;;;5029425;28;20025;-72
2022/01/08 04:57:25;;;;;;;0.32;0.20;;;3.80;99.90;;;;;;5032260;28;20481;-72
2022/01/08 04:59:51;;;;;;;1.17;0.30;;;3.80;99.90;;;;;;5026614;28;20026;-69
2022/01/08 05:02:16;;;;;;;0.75;0.20;;;3.70;99.90;;;;;;5032353;28;20444;-69
2022/01/08 05:04:42;;;;;;;0.80;0.30;;;3.60;99.90;;;;;;5016497;28;20037;-70
2022/01/08 05:07:08;;;;;;;0.45;0.20;;;3.60;99.90;;;;;;5030949;28;20021;-68
2022/01/08 05:09:34;;;;;;;0.25;0.20;;;3.60;99.90;;;;;;5012006;28;20512;-67
2022/01/08 05:11:59;;;;;;;0.35;0.20;;;3.50;99.90;;;;;;5032367;28;20036;-69
2022/01/08 05:14:27;;;;;;;0.10;0.10;;;3.50;99.90;;;;;;5035926;28;20033;-69
2022/01/08 05:16:58;;;;;;;2.08;0.32;;;3.50;99.90;;;;;;5033557;28;20496;-69
2022/01/08 05:19:35;;;;;;;1.30;0.20;;;3.50;99.90;;;;;;5039455;28;20029;-68
2022/01/08 05:22:01;;;;;;;1.52;0.28;;;3.50;99.90;;;;;;5022019;28;20525;-68
2022/01/08 05:24:30;;;;;;;0.30;0.20;;;3.50;99.90;;;;;;5027577;28;20087;-68
2022/01/08 05:26:55;;;;;;;0.75;0.20;;;3.50;99.90;;;;;;5036816;28;20048;-68
2022/01/08 05:29:21;;;;;;;0.40;0.17;;;3.50;99.90;;;;;;5030536;28;20065;-68
2022/01/08 05:31:48;;;;;;;1.65;0.20;;;3.50;99.90;;;;;;5037558;28;20040;-67
2022/01/08 05:34:14;;;;;;;0.55;0.20;;;3.50;99.90;;;;;;5025091;28;20044;-68
2022/01/08 05:36:39;;;;;;;1.00;0.47;;;3.40;99.90;;;;;;5026598;28;20021;-68
2022/01/08 05:39:05;;;;;;;0.98;0.25;;;3.40;99.90;;;;;;5028074;28;20040;-68
2022/01/08 05:41:30;;;;;;;0.55;0.10;;;3.40;99.90;;;;;;5035901;28;20029;-68
2022/01/08 05:43:56;;;;;;;0.30;0.10;;;3.30;99.90;;;;;;5035292;28;20041;-69
2022/01/08 05:46:22;;;;;;;0.20;0.10;;;3.30;99.90;;;;;;5009105;28;20120;-69
2022/01/08 05:48:47;;;;;;;1.00;0.30;;;3.30;99.90;;;;;;5044917;28;20040;-68
2022/01/08 05:51:19;;;;;;;0.57;0.20;;;3.30;99.90;;;;;;5035981;28;20033;-68
2022/01/08 05:53:44;;;;;;;1.23;0.20;;;3.20;99.90;;;;;;5039948;28;20026;-68
2022/01/08 05:56:10;;;;;;;0.55;0.30;;;3.20;99.90;;;;;;5015148;28;20532;-68
2022/01/08 05:58:37;;;;;;;1.00;0.15;;;3.20;99.90;;;;;;5012620;28;20029;-68
2022/01/08 06:01:02;;;;;;;0.10;0.10;;;3.10;99.90;;;;;;5036199;28;20024;-68
2022/01/08 06:03:28;;;;;;;1.48;0.15;;;3.10;99.90;;;;;;5037699;28;20029;-68
2022/01/08 06:05:56;;;;;;;1.17;0.20;;;3.10;99.90;;;;;;5028944;28;20128;-68
2022/01/08 06:08:22;;;;;;;0.03;0.03;;;3.10;99.90;;;;;;5025758;28;20044;-68
2022/01/08 06:10:48;;;;;;;0.20;0.13;;;3.10;99.90;;;;;;5013245;28;20042;-68
2022/01/08 06:13:13;;;;;;;0.20;0.10;;;3.00;99.90;;;;;;5013627;28;20029;-68
2022/01/08 06:15:39;;;;;;;0.20;0.10;;;3.10;99.90;;;;;;5030466;28;20032;-68
2022/01/08 06:18:05;;;;;;;0.82;0.10;;;3.00;99.90;;;;;;5032180;28;20447;-69
2022/01/08 06:20:30;;;;;;;0.03;0.03;;;3.00;99.90;;;;;;5027716;28;20420;-69
2022/01/08 06:22:56;;;;;;;0.30;0.20;;;3.00;99.90;;;;;;5016672;28;20188;-69
2022/01/08 06:25:24;;;;;;;0.50;0.20;;;3.00;99.90;;;;;;5016568;28;20033;-64
2022/01/08 06:27:50;;;;;;;0.25;0.15;;;3.10;99.90;;;;;;5029348;28;20028;-62
2022/01/08 06:30:19;;;;;;;0.10;0.10;;;3.50;99.90;;;;;;5019899;28;20121;-68
2022/01/08 06:32:44;;;;;;;0.15;0.13;;;3.50;99.90;;;;;;5012426;28;20036;-68
2022/01/08 06:35:10;;;;;;;0.57;0.20;;;3.30;99.90;;;;;;5036114;28;20363;-68
2022/01/08 06:37:36;;;;;;;0.35;0.20;;;3.10;99.90;;;;;;5036696;28;20508;-68
2022/01/08 06:40:01;;;;;;;0.22;0.15;;;3.00;99.90;;;;;;5027397;28;20351;-68
2022/01/08 06:42:27;;;;;;;0.20;0.20;;;2.90;99.90;;;;;;5011494;28;20034;-68
2022/01/08 06:44:53;;;;;;;0.45;0.15;;;2.80;99.90;;;;;;5027199;28;20410;-68
2022/01/08 06:47:18;;;;;;;0.82;0.30;;;2.70;99.90;;;;;;5021816;28;20465;-68
2022/01/08 06:49:44;;;;;;;2.60;1.10;;;2.70;99.90;;;;;;5032222;28;20402;-68
2022/01/08 06:52:10;;;;;;;1.08;0.60;;;2.70;99.90;;;;;;5025553;28;20029;-68
2022/01/08 06:54:35;;;;;;;2.47;1.02;;;2.60;99.90;;;;;;5029692;28;20029;-68
2022/01/08 06:57:01;;;;;;;4.45;1.50;;;2.50;99.90;;;;;;5022654;23;20100;-81
2022/01/08 06:59:27;;;;;;;2.17;1.38;;;2.50;99.90;;;;;;4996302;28;20026;-80
2022/01/08 07:01:52;;;;;;;0.98;0.65;;;2.50;99.90;;;;;;4998851;28;20034;-78
2022/01/08 07:04:18;;;;;;;0.88;0.47;;;2.40;99.90;;;;;;5008741;28;20093;-79
2022/01/08 07:06:44;;;;;;;1.60;0.55;;;2.40;99.90;;;;;;4999084;28;20142;-79
2022/01/08 07:09:09;;;;;;;0.95;0.40;;;2.40;99.90;;;;;;4990950;28;20068;-81
2022/01/08 07:11:35;;;;;;;0.52;0.40;;;2.40;99.90;;;;;;5011121;28;20030;-79
2022/01/08 07:14:02;;;;;;;0.60;0.50;;;2.40;99.90;;;;;;5008353;28;20541;-80
2022/01/08 07:16:27;;;;;;;1.25;0.40;;;2.40;99.90;;;;;;5012261;28;20025;-79
2022/01/08 07:18:53;;;;;;;1.40;0.55;;;2.40;99.90;;;;;;5011657;28;20109;-80
2022/01/08 07:21:19;;;;;;;3.10;0.57;;;2.40;99.90;;;;;;5010306;28;20045;-80
2022/01/08 07:23:44;;;;;;;1.23;0.68;;;2.40;99.90;;;;;;5018797;28;20021;-79
2022/01/08 07:26:10;;;;;;;1.40;0.85;;;2.40;99.90;;;;;;5012897;28;20037;-79
2022/01/08 07:28:37;;;;;;;0.70;0.50;;;2.40;99.90;;;;;;5015877;28;20025;-78
2022/01/08 07:31:03;;;;;;;3.78;1.15;;;2.40;99.90;;;;;;5008810;28;20508;-79
2022/01/08 07:33:28;;;;;;;2.08;0.90;;;2.40;99.90;;;;;;5006273;28;20022;-78
2022/01/08 07:35:54;;;;;;;1.45;0.90;;;2.30;99.90;;;;;;4991928;28;20034;-78
2022/01/08 07:38:21;;;;;;;1.80;0.73;;;2.30;99.90;;;;;;5008499;28;20233;-83
2022/01/08 07:40:51;;;;;;;1.83;0.90;;;2.30;99.90;;;;;;5003590;28;20025;-83
2022/01/08 07:43:17;;;;;;;1.63;0.80;;;2.20;99.90;;;;;;4992720;28;20031;-80
2022/01/08 07:45:43;;;;;;;2.40;1.00;;;2.20;99.90;;;;;;4997611;28;20041;-79
2022/01/08 07:48:08;;;;;;;3.08;1.10;;;2.20;99.90;;;;;;4998903;28;20483;-80
2022/01/08 07:50:34;;;;;;;2.08;0.90;;;2.20;99.90;;;;;;5002811;28;20395;-83
2022/01/08 07:53:00;;;;;;;3.97;1.40;;;2.20;99.90;;;;;;5005786;28;20629;-83
2022/01/08 07:55:26;;;;;;;3.60;2.15;;;2.20;99.90;;;;;;4997185;28;20030;-82
2022/01/08 07:57:51;;;;;;;2.55;1.67;;;2.10;99.90;;;;;;4984115;28;20114;-79
2022/01/08 08:00:17;;;;;;;1.83;1.05;;;2.20;99.90;;;;;;5005002;28;20024;-80
2022/01/08 08:02:43;;;;;;;1.92;1.25;;;2.20;99.90;;;;;;5002252;28;20032;-80
2022/01/08 08:05:09;;;;;;;2.30;1.13;;;2.30;99.90;;;;;;4988965;28;20038;-79
2022/01/08 08:07:36;;;;;;;2.78;2.45;;;2.20;99.90;;;;;;4999499;28;20030;-80
2022/01/08 08:10:08;;;;;;;3.22;1.25;;;2.20;99.90;;;;;;5005286;28;20038;-80
2022/01/08 08:12:34;;;;;;;2.15;1.52;;;2.20;99.90;;;;;;5002431;28;20018;-79
2022/01/08 08:15:00;;;;;;;1.83;1.20;;;2.10;99.90;;;;;;5010884;28;20022;-81
2022/01/08 08:17:26;;;;;;;2.55;1.60;;;2.10;99.90;;;;;;5010846;28;20022;-81
2022/01/08 08:19:51;;;;;;;5.22;1.77;;;2.10;99.90;;;;;;4998706;28;20022;-79
2022/01/08 08:22:17;;;;;;;4.13;1.60;;;2.10;99.90;;;;;;4999461;28;20030;-79
2022/01/08 08:24:43;;;;;;;3.97;1.38;;;2.10;99.90;;;;;;5007640;28;20044;-78
2022/01/08 08:27:08;;;;;;;4.50;1.83;;;2.00;99.90;;;;;;5006783;28;20035;-78
2022/01/08 08:29:35;;;;;;;3.13;1.10;;;2.10;99.90;;;;;;4985797;28;20394;-80
2022/01/08 08:32:01;;;;;;;2.08;1.10;;;2.10;99.90;;;;;;5011012;28;20065;-79
2022/01/08 08:34:27;;;;;;;2.83;1.40;;;2.10;99.90;;;;;;5005910;28;20446;-79
2022/01/08 08:36:52;;;;;;;2.20;1.05;;;2.00;99.90;;;;;;5005329;28;20418;-79
2022/01/08 08:39:18;;;;;;;2.10;1.20;;;2.10;99.90;;;;;;5005938;28;20022;-80
2022/01/08 08:41:43;;;;;;;2.25;1.30;;;2.10;99.90;;;;;;5005751;28;20037;-80
2022/01/08 08:44:09;;;;;;;2.67;1.45;;;2.10;99.90;;;;;;5008543;28;20113;-80
2022/01/08 08:46:35;;;;;;;1.90;1.15;;;2.20;99.90;;;;;;5008534;28;20071;-80
2022/01/08 08:49:00;;;;;;;1.70;1.10;;;2.20;99.90;;;;;;5002626;28;20034;-80
2022/01/08 08:51:26;;;;;;;7.05;1.33;;;2.20;99.90;;;;;;4984528;28;20037;-80
2022/01/08 08:53:51;;;;;;;4.47;1.00;;;2.30;99.90;;;;;;4988538;28;20235;-80
2022/01/08 08:56:17;;;;;;;3.95;0.90;;;2.30;99.90;;;;;;5003209;28;20502;-80
2022/01/08 08:58:43;;;;;;;3.00;0.95;;;2.30;99.90;;;;;;5007700;28;20038;-80
2022/01/08 09:01:08;;;;;;;1.02;0.63;;;2.30;99.90;;;;;;4993724;28;20034;-80
2022/01/08 09:03:34;;;;;;;2.28;1.05;;;2.30;99.90;;;;;;5008568;28;20034;-80
2022/01/08 09:06:00;;;;;;;2.33;1.13;;;2.30;99.90;;;;;;5010425;28;20033;-80
2022/01/08 09:08:25;;;;;;;1.08;0.60;;;2.40;99.90;;;;;;5008725;28;20029;-80
2022/01/08 09:10:51;;;;;;;3.72;0.90;;;2.30;99.90;;;;;;5002696;28;20494;-79
2022/01/08 09:13:17;;;;;;;3.00;1.02;;;2.40;99.90;;;;;;5006208;28;20030;-79
2022/01/08 09:15:42;;;;;;;1.38;0.68;;;2.40;99.90;;;;;;4987621;28;20065;-79
2022/01/08 09:18:10;;;;;;;2.70;1.13;;;2.40;99.90;;;;;;5003603;28;20018;-79
2022/01/08 09:20:37;;;;;;;1.88;0.90;;;2.50;99.90;;;;;;5007850;28;20504;-78
2022/01/08 09:23:04;;;;;;;2.78;0.90;;;2.50;99.90;;;;;;5001984;28;20299;-79
2022/01/08 09:25:29;;;;;;;3.67;1.20;;;2.60;99.90;;;;;;4997476;28;20030;-79
2022/01/08 09:27:55;;;;;;;5.03;1.20;;;2.60;99.90;;;;;;4988665;28;20041;-80
2022/01/08 09:30:21;;;;;;;2.85;1.38;;;2.60;99.90;;;;;;4986572;28;20252;-80
2022/01/08 09:32:47;;;;;;;2.88;1.25;;;2.60;99.90;;;;;;4986114;28;20037;-80
2022/01/08 09:35:14;;;;;;;3.67;1.65;;;2.60;99.90;;;;;;4988529;28;20025;-80
2022/01/08 09:37:39;;;;;;;3.45;1.27;;;2.70;99.90;;;;;;4995047;28;20034;-79
2022/01/08 09:40:11;;;;;;;3.75;1.42;;;2.70;99.90;;;;;;4992214;28;20091;-79
2022/01/08 09:42:40;;;;;;;2.63;1.10;;;2.80;99.90;;;;;;5011619;28;20029;-79
2022/01/08 09:45:06;;;;;;;3.17;1.17;;;2.80;99.90;;;;;;5008609;28;20029;-79
2022/01/08 09:47:31;;;;;;;4.95;1.27;;;2.90;99.90;;;;;;5006448;28;20026;-79
2022/01/08 09:49:57;;;;;;;3.63;1.00;;;2.90;99.90;;;;;;5006932;28;20029;-79
2022/01/08 09:52:23;;;;;;;6.03;2.00;;;2.90;99.90;;;;;;5000916;28;20065;-78
2022/01/08 09:54:49;;;;;;;5.35;1.42;;;3.00;99.90;;;;;;5004247;28;20030;-78
2022/01/08 09:57:15;;;;;;;2.42;1.17;;;2.90;99.90;;;;;;5012225;28;20053;-79
2022/01/08 09:59:41;;;;;;;3.40;0.90;;;2.90;99.90;;;;;;5007291;28;20053;-79
2022/01/08 10:02:06;;;;;;;2.40;1.02;;;2.90;99.90;;;;;;5006771;28;20040;-80
2022/01/08 10:04:36;;;;;;;5.30;1.42;;;2.90;99.90;;;;;;5007294;28;20261;-79
2022/01/08 10:07:17;;;;;;;4.40;1.20;;;2.90;99.90;;;;;;4989216;28;20474;-78
2022/01/08 10:10:04;;;;;;;3.72;1.33;;;3.00;99.90;;;;;;5005565;28;20087;-79
2022/01/08 10:12:40;;;;;;;2.97;1.05;;;3.00;99.90;;;;;;5005936;28;20558;-79
2022/01/08 10:17:51;;;;;;;3.13;1.23;;;3.00;99.90;;;;;;5003184;28;20570;-79
2022/01/08 10:20:49;;;;;;;2.47;1.30;;;3.10;99.90;;;;;;4991331;28;20121;-79
2022/01/08 10:23:18;;;;;;;3.60;1.10;;;3.10;99.90;;;;;;4992632;28;20029;-79
2022/01/08 10:26:00;;;;;;;2.90;1.30;;;3.10;99.90;;;;;;5006698;28;20041;-78
2022/01/08 10:28:35;;;;;;;5.75;1.63;;;3.20;99.90;;;;;;4990075;28;20089;-79
2022/01/08 10:31:20;;;;;;;3.40;1.20;;;3.20;99.90;;;;;;4990244;28;20125;-78
2022/01/08 10:34:08;;;;;;;7.55;1.60;;;3.20;99.90;;;;;;4984132;28;20040;-78
2022/01/08 10:37:01;;;;;;;5.63;1.15;;;3.10;99.90;;;;;;5008234;28;20461;-78
2022/01/08 10:39:34;;;;;;;3.60;1.10;;;3.20;99.90;;;;;;4990756;28;20038;-79
2022/01/08 10:42:07;;;;;;;5.25;1.10;;;3.20;99.90;;;;;;4989490;28;20502;-78
2022/01/08 10:44:33;;;;;;;2.78;0.77;;;3.10;99.90;;;;;;5010295;28;20068;-79
2022/01/08 10:47:08;;;;;;;4.00;1.10;;;3.10;99.90;;;;;;4990244;28;20053;-79
2022/01/08 10:49:35;;;;;;;4.80;1.63;;;3.10;99.90;;;;;;5006992;28;20030;-78
2022/01/08 10:52:07;;;;;;;2.50;1.05;;;3.10;99.90;;;;;;5003435;28;20057;-78
2022/01/08 10:54:34;;;;;;;5.18;1.70;;;3.10;99.90;;;;;;5004922;28;20529;-78
2022/01/08 10:57:03;;;;;;;7.97;1.45;;;3.20;99.90;;;;;;5011073;28;20116;-78
2022/01/08 10:59:30;;;;;;;4.78;1.95;;;3.30;99.90;;;;;;5011959;28;20085;-78
2022/01/08 11:02:00;;;;;;;3.55;1.08;;;3.40;99.90;;;;;;5008022;28;20029;-81
2022/01/08 11:04:39;;;;;;;3.63;1.20;;;3.40;99.90;;;;;;5006670;28;20029;-81
2022/01/08 11:07:10;;;;;;;6.68;1.45;;;3.50;99.90;;;;;;5005616;28;20041;-81
2022/01/08 11:09:38;;;;;;;2.20;0.82;;;3.70;99.90;;;;;;5011048;28;20104;-82
2022/01/08 11:12:06;;;;;;;3.80;0.93;;;3.80;99.90;;;;;;5000526;28;20042;-79
2022/01/08 11:17:25;;;;;;;3.33;0.85;;;3.70;99.90;;;;;;5002340;28;20387;-79
2022/01/08 11:19:57;;;;;;;3.47;0.80;;;3.70;99.90;;;;;;5009398;28;20014;-81
2022/01/08 11:22:25;;;;;;;3.78;1.08;;;3.80;99.90;;;;;;5010330;28;20034;-79
2022/01/08 11:25:13;;;;;;;2.97;0.85;;;3.80;99.90;;;;;;5008593;28;20040;-82
2022/01/08 11:27:57;;;;;;;6.32;1.33;;;3.90;99.90;;;;;;5003332;28;20454;-80
2022/01/08 11:30:25;;;;;;;4.20;1.17;;;4.00;99.90;;;;;;5007572;28;20482;-80
2022/01/08 11:33:02;;;;;;;2.28;1.13;;;4.10;99.90;;;;;;4991402;28;20053;-80
2022/01/08 11:35:30;;;;;;;3.63;1.33;;;4.10;99.90;;;;;;4987260;28;20105;-79
2022/01/08 11:37:56;;;;;;;5.18;1.27;;;4.20;99.90;;;;;;5002112;28;20109;-79
2022/01/08 11:40:26;;;;;;;2.38;1.10;;;4.30;99.90;;;;;;4989311;28;20085;-78
2022/01/08 11:42:53;;;;;;;4.22;1.00;;;4.50;99.90;;;;;;4989022;28;20061;-78
2022/01/08 11:45:32;;;;;;;4.20;1.27;;;4.60;99.90;;;;;;4986081;28;20026;-78
2022/01/08 11:47:59;;;;;;;5.40;1.08;;;4.50;99.90;;;;;;5007827;28;20022;-77
2022/01/08 11:50:28;;;;;;;3.47;1.17;;;4.50;99.90;;;;;;4992494;28;20550;-78
2022/01/08 11:53:14;;;;;;;4.80;1.10;;;4.50;99.90;;;;;;5014534;28;20092;-78
2022/01/08 11:55:41;;;;;;;4.00;1.30;;;4.50;99.90;;;;;;4994101;28;20458;-78
2022/01/08 11:58:16;;;;;;;5.50;1.15;;;4.50;99.90;;;;;;4991672;28;20034;-78
2022/01/08 12:00:58;;;;;;;7.45;1.08;;;4.60;99.90;;;;;;5015880;28;20034;-78
2022/01/08 12:03:37;;;;;;;3.28;0.88;;;4.60;99.90;;;;;;5007934;28;20438;-78
2022/01/08 12:06:33;;;;;;;3.40;1.10;;;4.60;99.90;;;;;;5011150;28;20028;-78
2022/01/08 12:09:28;;;;;;;5.93;1.00;;;4.70;99.90;;;;;;5005552;28;20022;-77
2022/01/08 12:12:00;;;;;;;5.07;1.20;;;4.60;99.90;;;;;;5008381;28;20105;-77
2022/01/08 12:14:28;;;;;;;3.00;0.90;;;4.60;99.90;;;;;;5020951;28;20026;-77
2022/01/08 12:17:11;;;;;;;2.50;1.30;;;4.60;99.90;;;;;;5015910;28;20030;-78
2022/01/08 12:19:43;;;;;;;4.70;1.40;;;4.60;99.90;;;;;;5007106;28;20490;-78
2022/01/08 12:22:20;;;;;;;2.67;0.80;;;4.50;99.90;;;;;;5001773;28;20146;-77
2022/01/08 12:24:53;;;;;;;3.90;1.38;;;4.30;99.90;;;;;;5005397;28;20022;-77
2022/01/08 12:27:37;;;;;;;3.13;1.30;;;4.20;99.90;;;;;;5009228;28;20022;-77
2022/01/08 12:30:16;;;;;;;5.72;1.55;;;4.20;99.90;;;;;;5009149;28;20026;-77
2022/01/08 12:32:48;;;;;;;3.50;1.38;;;4.10;99.90;;;;;;5019854;23;20483;-70
2022/01/08 12:35:38;;;;;;;3.47;1.48;;;4.10;99.90;;;;;;4973208;28;20049;-70
2022/01/08 12:38:07;;;;;;;1.80;1.05;;;4.00;99.90;;;;;;4956373;28;20023;-68
2022/01/08 12:40:39;;;;;;;3.50;1.42;;;4.10;99.90;;;;;;4952179;28;20031;-70
2022/01/08 12:43:17;;;;;;;3.67;1.80;;;4.00;99.90;;;;;;4951807;28;20026;-70
2022/01/08 12:45:50;;;;;;;4.35;1.65;;;4.10;99.90;;;;;;4958414;28;20028;-71
2022/01/08 12:48:20;;;;;;;2.13;0.80;;;4.10;99.90;;;;;;4955759;29;20380;-71
2022/01/08 12:50:46;;;;;;;3.58;1.10;;;4.20;99.90;;;;;;4937996;29;20043;-71
2022/01/08 12:53:13;;;;;;;1.70;0.82;;;4.20;99.90;;;;;;4962220;28;20428;-71
2022/01/08 12:55:55;;;;;;;3.20;1.05;;;4.20;99.90;;;;;;4957279;28;20020;-71
2022/01/08 12:58:27;;;;;;;3.35;0.80;;;4.20;99.90;;;;;;4955357;29;20200;-71
2022/01/08 13:00:56;;;;;;;3.10;1.00;;;4.20;99.90;;;;;;4955578;29;20016;-71
2022/01/08 13:03:24;;;;;;;1.77;0.50;;;4.10;99.90;;;;;;4955378;28;20034;-72
2022/01/08 13:05:59;;;;;;;1.58;0.63;;;4.10;99.90;;;;;;4955286;28;20090;-72
2022/01/08 13:08:30;;;;;;;3.30;0.70;;;4.00;99.90;;;;;;4959126;28;20423;-72
2022/01/08 13:10:59;;;;;;;1.98;0.90;;;4.00;99.90;;;;;;4955137;29;20487;-72
2022/01/08 13:13:44;;;;;;;3.20;0.88;;;4.00;99.90;;;;;;4965922;28;20031;-72
2022/01/08 13:16:21;;;;;;;3.72;1.10;;;3.90;99.90;;;;;;4974283;28;20521;-72
2022/01/08 13:19:08;;;;;;;3.38;0.70;;;3.90;99.90;;;;;;4966999;28;20446;-72
2022/01/08 13:21:38;;;;;;;2.05;0.77;;;3.80;99.90;;;;;;4946206;29;20031;-72
2022/01/08 13:24:13;;;;;;;4.75;1.63;;;3.80;99.90;;;;;;4961420;28;20544;-72
2022/01/08 13:27:04;;;;;;;3.70;1.10;;;3.80;99.90;;;;;;4951764;29;20211;-72
2022/01/08 13:29:31;;;;;;;6.18;2.15;;;3.80;99.90;;;;;;4937205;29;20132;-72
2022/01/08 13:32:09;;;;;;;4.05;2.00;;;3.80;99.90;;;;;;4954774;29;20020;-72
2022/01/08 13:34:41;;;;;;;2.63;1.10;;;3.90;99.90;;;;;;4954813;28;20059;-72